Time;durP1;ratioP1;P1;durP2;ratioP2;P2;SDS_P1;SDS_P2;PMS_P1;PMS_P2;Temp;Humidity;BMP_temperature;BMP_pressure;BME280_temperature;BME280_humidity;BME280_pressure;Samples;Min_cycle;Max_cycle;Signal;HPM_P1;HPM_P2
2023/09/18 00:00:53;;;;;;;12.38;8.93;;;15.90;99.90;;;;;;5056661;28;20119;-65
2023/09/18 00:03:21;;;;;;;10.10;8.88;;;15.80;99.90;;;;;;5056927;28;20087;-64
2023/09/18 00:05:50;;;;;;;12.35;8.68;;;15.80;99.90;;;;;;5056355;28;20430;-64
2023/09/18 00:08:17;;;;;;;11.23;8.43;;;15.80;99.90;;;;;;5056406;28;20365;-65
2023/09/18 00:10:46;;;;;;;13.45;9.32;;;15.80;99.90;;;;;;5074315;28;20036;-65
2023/09/18 00:13:11;;;;;;;11.93;8.68;;;15.80;99.90;;;;;;5074038;28;20472;-64
2023/09/18 00:15:38;;;;;;;13.75;9.52;;;15.80;99.90;;;;;;5074377;28;20033;-64
2023/09/18 00:18:04;;;;;;;12.05;8.63;;;15.70;99.90;;;;;;5056466;28;20032;-65
2023/09/18 00:20:29;;;;;;;12.15;8.65;;;15.70;99.90;;;;;;5056287;28;20377;-64
2023/09/18 00:22:55;;;;;;;10.52;9.43;;;15.70;99.90;;;;;;5074153;28;20506;-64
2023/09/18 00:25:22;;;;;;;11.13;9.45;;;15.70;99.90;;;;;;5055909;28;20028;-64
2023/09/18 00:27:47;;;;;;;12.40;9.00;;;15.70;99.90;;;;;;5074074;28;20028;-64
2023/09/18 00:30:13;;;;;;;10.80;8.50;;;15.70;99.90;;;;;;5074040;28;20031;-65
2023/09/18 00:32:39;;;;;;;12.43;9.68;;;15.70;99.90;;;;;;5074156;28;20027;-64
2023/09/18 00:35:05;;;;;;;11.18;9.98;;;15.70;99.90;;;;;;5074232;28;20541;-64
2023/09/18 00:37:30;;;;;;;11.50;10.30;;;15.70;99.90;;;;;;5073863;28;20033;-64
2023/09/18 00:39:56;;;;;;;12.77;9.80;;;15.70;99.90;;;;;;5073948;28;20037;-64
2023/09/18 00:42:22;;;;;;;12.82;10.45;;;15.70;99.90;;;;;;5073886;28;20025;-64
2023/09/18 00:44:48;;;;;;;11.48;10.27;;;15.70;99.90;;;;;;5073840;28;20028;-65
2023/09/18 00:47:15;;;;;;;11.13;10.02;;;15.70;99.90;;;;;;5056454;28;20115;-65
2023/09/18 00:49:43;;;;;;;12.48;11.05;;;15.80;99.90;;;;;;5073994;28;20028;-65
2023/09/18 00:52:10;;;;;;;11.02;9.88;;;15.80;99.90;;;;;;5073963;28;20028;-64
2023/09/18 00:54:38;;;;;;;16.50;11.68;;;15.90;99.90;;;;;;5073449;28;20028;-65
2023/09/18 00:57:04;;;;;;;15.95;12.18;;;15.90;99.90;;;;;;5055735;28;20035;-65
2023/09/18 00:59:30;;;;;;;12.60;11.30;;;15.90;99.90;;;;;;5055758;28;20499;-64
2023/09/18 01:01:56;;;;;;;14.15;12.00;;;15.90;99.90;;;;;;5055718;28;20388;-64
2023/09/18 01:04:25;;;;;;;11.98;10.77;;;16.00;99.90;;;;;;5058055;28;20024;-65
2023/09/18 01:06:52;;;;;;;13.45;11.55;;;16.00;99.90;;;;;;5059931;28;20449;-64
2023/09/18 01:09:18;;;;;;;12.43;11.05;;;16.00;99.90;;;;;;5059807;28;20384;-65
2023/09/18 01:11:46;;;;;;;13.32;10.77;;;16.00;99.90;;;;;;5077713;28;20032;-65
2023/09/18 01:14:27;;;;;;;12.67;10.33;;;16.00;99.90;;;;;;5077726;28;20033;-65
2023/09/18 01:17:04;;;;;;;14.15;10.80;;;16.00;99.90;;;;;;5077538;28;20282;-65
2023/09/18 01:19:37;;;;;;;12.90;11.18;;;16.00;99.90;;;;;;5059506;28;20029;-64
2023/09/18 01:22:07;;;;;;;15.05;10.82;;;16.10;99.90;;;;;;5077837;28;20107;-65
2023/09/18 01:24:33;;;;;;;14.10;10.80;;;16.00;99.90;;;;;;5079202;28;20028;-65
2023/09/18 01:26:59;;;;;;;11.15;10.00;;;16.00;99.90;;;;;;5078945;28;20111;-65
2023/09/18 01:29:25;;;;;;;13.63;10.15;;;16.00;99.90;;;;;;5061198;28;20146;-65
2023/09/18 01:31:51;;;;;;;12.93;9.68;;;16.10;99.90;;;;;;5078340;28;20025;-65
2023/09/18 01:34:21;;;;;;;11.73;10.35;;;16.10;99.90;;;;;;5071607;28;20052;-65
2023/09/18 01:36:47;;;;;;;15.85;10.73;;;16.00;99.90;;;;;;5096488;28;20028;-64
2023/09/18 01:39:15;;;;;;;12.48;9.90;;;16.00;99.90;;;;;;5096376;28;20052;-64
2023/09/18 01:41:41;;;;;;;14.13;10.52;;;16.00;99.90;;;;;;5097552;28;20062;-64
2023/09/18 01:44:07;;;;;;;13.02;11.00;;;16.00;99.90;;;;;;5097127;28;20048;-64
2023/09/18 01:46:37;;;;;;;16.67;11.52;;;16.00;99.90;;;;;;5097684;28;20028;-64
2023/09/18 01:49:03;;;;;;;11.50;10.30;;;16.00;99.90;;;;;;5096019;28;20074;-65
2023/09/18 01:51:29;;;;;;;12.13;10.93;;;16.00;99.90;;;;;;5079304;28;20094;-64
2023/09/18 01:53:56;;;;;;;13.43;11.57;;;16.00;99.90;;;;;;5096106;28;20110;-65
2023/09/18 01:56:22;;;;;;;12.23;10.77;;;16.00;99.90;;;;;;5097251;28;20024;-64
2023/09/18 01:58:47;;;;;;;12.80;11.18;;;16.00;99.90;;;;;;5097227;28;20036;-64
2023/09/18 02:01:13;;;;;;;14.57;11.25;;;16.10;99.90;;;;;;5095790;28;20388;-64
2023/09/18 02:03:41;;;;;;;12.45;11.07;;;16.10;99.90;;;;;;5097062;28;20036;-64
2023/09/18 02:06:10;;;;;;;14.77;10.70;;;16.10;99.90;;;;;;5097054;28;20024;-64
2023/09/18 02:08:35;;;;;;;12.70;10.52;;;16.00;99.90;;;;;;5095703;28;20107;-65
2023/09/18 02:11:02;;;;;;;18.77;11.32;;;16.00;99.90;;;;;;5096857;28;20052;-64
2023/09/18 02:13:28;;;;;;;13.38;11.35;;;16.00;99.90;;;;;;5096528;28;20555;-64
2023/09/18 02:15:55;;;;;;;16.60;11.27;;;16.00;99.90;;;;;;5094266;28;20195;-64
2023/09/18 02:18:21;;;;;;;12.13;10.93;;;16.00;99.90;;;;;;5095361;28;20089;-65
2023/09/18 02:20:48;;;;;;;13.13;11.73;;;16.00;99.90;;;;;;5096395;28;20032;-65
2023/09/18 02:23:15;;;;;;;13.43;12.02;;;16.10;99.90;;;;;;5096175;28;20020;-64
2023/09/18 02:25:40;;;;;;;16.35;12.73;;;16.20;99.90;;;;;;5095316;28;20379;-64
2023/09/18 02:28:07;;;;;;;12.85;11.10;;;16.20;99.90;;;;;;5095286;28;20024;-64
2023/09/18 02:30:32;;;;;;;12.68;10.57;;;16.20;99.90;;;;;;5095273;28;20356;-64
2023/09/18 02:32:59;;;;;;;14.02;11.90;;;16.20;99.90;;;;;;5096533;28;20027;-64
2023/09/18 02:35:25;;;;;;;16.75;12.85;;;16.10;99.90;;;;;;5079659;28;20511;-64
2023/09/18 02:37:52;;;;;;;15.70;11.57;;;16.20;99.90;;;;;;5058151;28;20033;-64
2023/09/18 02:40:17;;;;;;;14.65;11.60;;;16.20;99.90;;;;;;5057999;28;20027;-64
2023/09/18 02:42:43;;;;;;;15.68;12.00;;;16.20;99.90;;;;;;5058557;28;20029;-64
2023/09/18 02:45:09;;;;;;;14.15;11.63;;;16.10;99.90;;;;;;5076148;28;20358;-64
2023/09/18 02:47:37;;;;;;;14.88;12.55;;;16.10;99.90;;;;;;5075877;28;20032;-64
2023/09/18 02:50:05;;;;;;;15.80;12.02;;;16.10;99.90;;;;;;5058219;28;20427;-64
2023/09/18 02:52:30;;;;;;;16.73;11.52;;;16.10;99.90;;;;;;5075802;28;20024;-64
2023/09/18 02:54:56;;;;;;;16.38;11.63;;;16.00;99.90;;;;;;5075790;28;20032;-64
2023/09/18 02:57:22;;;;;;;14.77;12.00;;;15.90;99.90;;;;;;5057670;28;20028;-64
2023/09/18 02:59:48;;;;;;;16.48;12.27;;;15.90;99.90;;;;;;5057697;28;20460;-65
2023/09/18 03:02:14;;;;;;;15.98;12.02;;;15.90;99.90;;;;;;5075685;28;20063;-64
2023/09/18 03:04:39;;;;;;;12.98;11.57;;;15.90;99.90;;;;;;5058459;28;20418;-64
2023/09/18 03:07:05;;;;;;;15.25;11.95;;;15.80;99.90;;;;;;5057616;28;20389;-64
2023/09/18 03:09:31;;;;;;;14.07;11.82;;;15.80;99.90;;;;;;5057526;28;20119;-64
2023/09/18 03:11:56;;;;;;;14.57;12.27;;;15.80;99.90;;;;;;5075144;28;20029;-64
2023/09/18 03:14:22;;;;;;;15.80;12.18;;;15.80;99.90;;;;;;5075103;28;20032;-64
2023/09/18 03:16:47;;;;;;;14.93;12.55;;;15.80;99.90;;;;;;5075291;28;20032;-64
2023/09/18 03:19:13;;;;;;;17.27;14.25;;;15.80;99.90;;;;;;5075054;28;20051;-64
2023/09/18 03:21:39;;;;;;;15.20;13.10;;;15.80;99.90;;;;;;5075222;28;20143;-65
2023/09/18 03:24:05;;;;;;;16.35;13.50;;;15.90;99.90;;;;;;5057262;28;20032;-64
2023/09/18 03:26:31;;;;;;;16.15;14.20;;;15.90;99.90;;;;;;5075382;28;20040;-64
2023/09/18 03:28:56;;;;;;;17.60;14.45;;;16.00;99.90;;;;;;5057960;28;20028;-64
2023/09/18 03:31:22;;;;;;;15.35;13.13;;;16.10;99.90;;;;;;5075615;28;20060;-64
2023/09/18 03:33:48;;;;;;;19.05;14.70;;;16.10;99.90;;;;;;5061013;28;20143;-64
2023/09/18 03:36:14;;;;;;;22.45;14.93;;;16.10;99.90;;;;;;5093998;28;20059;-64
2023/09/18 03:38:40;;;;;;;18.80;14.82;;;16.10;99.90;;;;;;5095338;28;20028;-65
2023/09/18 03:41:06;;;;;;;16.10;14.32;;;16.20;99.90;;;;;;5094916;28;20103;-64
2023/09/18 03:43:31;;;;;;;16.63;14.43;;;16.20;99.90;;;;;;5094091;28;20020;-64
2023/09/18 03:46:07;;;;;;;16.73;14.50;;;16.20;99.90;;;;;;5093820;28;20035;-65
2023/09/18 03:48:37;;;;;;;17.15;15.10;;;16.30;99.90;;;;;;5095004;28;20048;-65
2023/09/18 03:51:06;;;;;;;17.00;14.38;;;16.30;99.90;;;;;;5097528;28;20020;-65
2023/09/18 03:53:35;;;;;;;17.83;14.40;;;16.40;99.90;;;;;;5096319;28;20024;-65
2023/09/18 03:56:01;;;;;;;16.55;14.48;;;16.40;99.90;;;;;;5096968;28;20115;-65
2023/09/18 03:58:27;;;;;;;15.27;13.32;;;16.40;99.90;;;;;;5096788;28;20071;-64
2023/09/18 04:00:52;;;;;;;19.33;14.75;;;16.30;99.90;;;;;;5096438;28;20028;-64
2023/09/18 04:03:18;;;;;;;16.35;13.68;;;16.40;99.90;;;;;;5095180;28;20024;-64
2023/09/18 04:05:44;;;;;;;16.55;14.00;;;16.40;99.90;;;;;;5094880;28;20103;-64
2023/09/18 04:08:10;;;;;;;16.75;14.95;;;16.40;99.90;;;;;;5094821;28;20375;-61
2023/09/18 04:10:37;;;;;;;16.55;14.32;;;16.40;99.90;;;;;;5094544;28;20032;-60
2023/09/18 04:13:02;;;;;;;17.10;14.45;;;16.50;99.90;;;;;;5094202;28;20028;-60
2023/09/18 04:15:30;;;;;;;17.27;14.85;;;16.50;99.90;;;;;;5094121;28;20020;-61
2023/09/18 04:17:56;;;;;;;17.42;14.27;;;16.60;99.90;;;;;;5094426;28;20028;-64
2023/09/18 04:20:22;;;;;;;15.82;13.23;;;16.60;99.90;;;;;;5093087;28;20028;-64
2023/09/18 04:23:25;;;;;;;17.67;13.75;;;16.70;99.90;;;;;;5093055;28;20020;-64
2023/09/18 04:25:51;;;;;;;17.23;14.93;;;16.60;99.90;;;;;;5094445;28;20028;-63
2023/09/18 04:28:21;;;;;;;16.83;14.23;;;16.60;99.90;;;;;;5092975;28;20031;-64
2023/09/18 04:30:47;;;;;;;19.23;14.88;;;16.60;99.90;;;;;;5094407;28;20046;-64
2023/09/18 04:33:16;;;;;;;15.77;14.05;;;16.60;99.90;;;;;;5094239;28;20020;-64
2023/09/18 04:35:42;;;;;;;17.02;15.23;;;16.60;99.90;;;;;;5074243;28;20068;-64
2023/09/18 04:38:08;;;;;;;16.88;14.05;;;16.60;99.90;;;;;;5055416;28;20035;-64
2023/09/18 04:40:34;;;;;;;18.00;15.50;;;16.60;99.90;;;;;;5055899;28;20115;-64
2023/09/18 04:43:00;;;;;;;21.63;16.20;;;16.60;99.90;;;;;;5055800;28;20028;-64
2023/09/18 04:45:26;;;;;;;19.42;14.93;;;16.60;99.90;;;;;;5074109;28;20029;-64
2023/09/18 04:47:53;;;;;;;19.80;15.80;;;16.60;99.90;;;;;;5073494;28;20431;-64
2023/09/18 04:50:19;;;;;;;18.95;16.40;;;16.60;99.90;;;;;;5056151;28;20025;-65
2023/09/18 04:52:45;;;;;;;17.85;14.30;;;16.60;99.90;;;;;;5073584;28;20051;-65
2023/09/18 04:55:11;;;;;;;21.33;15.32;;;16.60;99.90;;;;;;5073738;28;20354;-64
2023/09/18 04:57:37;;;;;;;17.65;15.35;;;16.60;99.90;;;;;;5073681;28;20028;-65
2023/09/18 05:00:08;;;;;;;19.50;15.57;;;16.60;99.90;;;;;;5073404;28;20040;-64
2023/09/18 05:02:34;;;;;;;17.38;15.38;;;16.70;99.90;;;;;;5055841;28;20020;-64
2023/09/18 05:05:00;;;;;;;20.58;15.15;;;16.70;99.90;;;;;;5055697;28;20067;-64
2023/09/18 05:07:26;;;;;;;18.92;14.98;;;16.80;99.90;;;;;;5055670;28;20043;-65
2023/09/18 05:09:52;;;;;;;22.73;15.57;;;16.80;99.90;;;;;;5073141;28;20033;-64
2023/09/18 05:12:18;;;;;;;20.42;15.00;;;16.80;99.90;;;;;;5073486;28;20027;-64
2023/09/18 05:14:44;;;;;;;23.20;15.00;;;16.80;99.90;;;;;;5073741;28;20364;-64
2023/09/18 05:17:17;;;;;;;20.58;17.25;;;16.80;99.90;;;;;;5073661;28;20472;-64
2023/09/18 05:19:45;;;;;;;18.70;15.43;;;16.80;99.90;;;;;;5073648;28;20040;-64
2023/09/18 05:22:12;;;;;;;24.95;15.02;;;16.90;99.90;;;;;;5073407;28;20078;-65
2023/09/18 05:24:38;;;;;;;18.05;14.65;;;16.90;99.90;;;;;;5073673;28;20078;-65
2023/09/18 05:27:06;;;;;;;19.65;15.00;;;16.90;99.90;;;;;;5055317;28;20029;-65
2023/09/18 05:29:32;;;;;;;17.20;15.18;;;16.90;99.90;;;;;;5073325;28;20108;-65
2023/09/18 05:31:57;;;;;;;18.88;15.65;;;16.90;99.90;;;;;;5073776;28;20104;-65
2023/09/18 05:34:23;;;;;;;18.52;14.70;;;17.00;99.90;;;;;;5073125;28;20123;-65
2023/09/18 05:36:49;;;;;;;19.90;15.50;;;17.00;99.90;;;;;;5073397;28;20035;-65
2023/09/18 05:39:16;;;;;;;21.80;15.43;;;17.10;99.90;;;;;;5073320;28;20029;-65
2023/09/18 05:41:42;;;;;;;18.38;14.40;;;17.20;99.90;;;;;;5055340;28;20032;-65
2023/09/18 05:44:09;;;;;;;22.60;14.20;;;17.40;99.90;;;;;;5073354;28;20021;-65
2023/09/18 05:46:35;;;;;;;18.83;13.93;;;17.60;99.90;;;;;;5055557;28;20153;-65
2023/09/18 05:49:01;;;;;;;19.13;14.75;;;17.70;99.90;;;;;;5055246;28;20028;-65
2023/09/18 05:51:27;;;;;;;17.00;13.60;;;17.90;99.90;;;;;;5076592;28;20028;-65
2023/09/18 05:53:53;;;;;;;15.75;13.73;;;17.90;99.90;;;;;;5076800;28;20030;-65
2023/09/18 05:56:18;;;;;;;16.73;13.80;;;18.00;99.90;;;;;;5059706;28;20417;-65
2023/09/18 05:58:44;;;;;;;16.02;13.82;;;18.10;99.90;;;;;;5060135;28;20043;-65
2023/09/18 06:01:10;;;;;;;15.93;13.38;;;18.10;99.90;;;;;;5060566;28;20077;-65
2023/09/18 06:03:36;;;;;;;17.08;13.63;;;18.20;99.90;;;;;;5077347;28;20025;-65
2023/09/18 06:06:02;;;;;;;15.20;13.32;;;18.30;99.90;;;;;;5076756;28;20100;-65
2023/09/18 06:08:31;;;;;;;19.20;12.82;;;18.60;99.90;;;;;;5076494;28;20032;-65
2023/09/18 06:10:57;;;;;;;17.63;12.90;;;18.90;99.90;;;;;;5076770;28;20049;-66
2023/09/18 06:13:27;;;;;;;14.50;11.98;;;19.20;99.90;;;;;;5078422;28;20059;-64
2023/09/18 06:15:55;;;;;;;13.18;11.80;;;19.50;99.90;;;;;;5078500;28;20028;-65
2023/09/18 06:18:21;;;;;;;12.60;11.27;;;19.80;99.90;;;;;;5079023;28;20526;-63
2023/09/18 06:20:48;;;;;;;13.85;11.18;;;20.10;99.90;;;;;;5059254;28;20026;-63
2023/09/18 06:23:13;;;;;;;13.65;10.07;;;20.40;99.90;;;;;;5076153;28;20103;-63
2023/09/18 06:25:40;;;;;;;15.27;10.98;;;20.70;99.90;;;;;;5076701;28;20068;-63
2023/09/18 06:28:05;;;;;;;14.88;11.43;;;21.00;99.90;;;;;;5076241;28;20103;-64
2023/09/18 06:30:33;;;;;;;11.73;9.52;;;21.20;99.90;;;;;;5076025;28;20537;-63
2023/09/18 06:33:02;;;;;;;13.35;9.30;;;21.40;99.90;;;;;;5076501;28;20028;-63
2023/09/18 06:35:28;;;;;;;12.90;9.95;;;21.60;99.90;;;;;;5075867;28;20461;-63
2023/09/18 06:37:58;;;;;;;15.00;9.38;;;21.90;99.90;;;;;;5075727;28;20047;-63
2023/09/18 06:40:25;;;;;;;17.00;9.77;;;22.10;99.90;;;;;;5058274;28;20036;-63
2023/09/18 06:42:52;;;;;;;14.68;8.88;;;22.10;99.90;;;;;;5075750;28;20029;-63
2023/09/18 06:45:17;;;;;;;10.02;8.10;;;22.10;99.90;;;;;;5058047;28;20031;-63
2023/09/18 06:47:43;;;;;;;13.32;9.15;;;22.30;99.90;;;;;;5076319;28;20376;-63
2023/09/18 06:50:09;;;;;;;13.40;8.32;;;22.40;99.90;;;;;;5075819;28;20051;-63
2023/09/18 06:52:35;;;;;;;9.70;8.50;;;22.50;99.90;;;;;;5058166;28;20048;-64
2023/09/18 06:55:01;;;;;;;12.40;8.15;;;22.70;99.90;;;;;;5075773;28;20025;-63
2023/09/18 06:57:27;;;;;;;12.32;8.35;;;22.90;99.90;;;;;;5075871;28;20105;-64
2023/09/18 06:59:53;;;;;;;9.50;7.85;;;23.20;99.90;;;;;;5057881;28;20060;-63
2023/09/18 07:02:19;;;;;;;7.80;7.07;;;23.50;99.90;;;;;;5040500;28;20063;-63
2023/09/18 07:04:45;;;;;;;7.85;6.95;;;23.90;99.90;;;;;;5057944;28;20092;-63
2023/09/18 07:07:15;;;;;;;8.85;7.00;;;24.20;99.90;;;;;;5075577;28;20453;-63
2023/09/18 07:09:41;;;;;;;7.10;6.18;;;24.40;99.90;;;;;;5075255;28;20033;-63
2023/09/18 07:12:10;;;;;;;8.07;6.30;;;24.50;99.90;;;;;;5075261;28;20032;-61
2023/09/18 07:14:37;;;;;;;8.55;6.22;;;24.80;99.90;;;;;;5057988;28;20028;-62
2023/09/18 07:17:04;;;;;;;7.82;6.28;;;25.10;99.90;;;;;;5075901;28;20115;-63
2023/09/18 07:19:29;;;;;;;9.00;6.50;;;25.20;99.90;;;;;;5075373;28;20452;-62
2023/09/18 07:21:55;;;;;;;8.32;6.05;;;25.60;99.90;;;;;;5075441;28;20070;-61
2023/09/18 07:24:20;;;;;;;9.52;5.60;;;25.70;99.90;;;;;;5074942;28;20031;-61
2023/09/18 07:26:48;;;;;;;8.52;5.57;;;25.90;99.90;;;;;;5074982;28;20030;-63
2023/09/18 07:29:15;;;;;;;7.05;6.05;;;26.00;99.90;;;;;;5075043;28;20032;-61
2023/09/18 07:31:41;;;;;;;5.80;4.88;;;26.20;99.90;;;;;;5057365;28;20032;-63
2023/09/18 07:34:07;;;;;;;7.07;5.55;;;26.60;99.90;;;;;;5076969;28;20436;-63
2023/09/18 07:36:32;;;;;;;6.70;5.47;;;26.80;99.90;;;;;;5056877;28;20064;-64
2023/09/18 07:38:58;;;;;;;5.80;5.20;;;26.90;99.50;;;;;;5057242;28;20082;-64
2023/09/18 07:41:25;;;;;;;6.80;4.90;;;27.10;99.00;;;;;;5074885;28;20456;-64
2023/09/18 07:43:50;;;;;;;5.53;4.65;;;27.50;98.30;;;;;;5057177;28;20032;-63
2023/09/18 07:46:16;;;;;;;6.45;4.70;;;27.80;97.80;;;;;;5074859;28;20070;-63
2023/09/18 07:48:42;;;;;;;6.45;4.68;;;27.80;97.00;;;;;;5074826;28;20372;-61
2023/09/18 07:51:11;;;;;;;5.45;4.93;;;27.80;96.80;;;;;;5056946;28;20029;-61
2023/09/18 07:53:37;;;;;;;5.05;4.13;;;27.70;97.00;;;;;;5056870;28;20089;-64
2023/09/18 07:56:04;;;;;;;4.95;4.45;;;27.80;96.70;;;;;;5074891;28;20464;-63
2023/09/18 07:58:30;;;;;;;5.00;4.50;;;28.00;95.70;;;;;;5074448;28;20492;-63
2023/09/18 08:00:59;;;;;;;7.22;4.80;;;28.30;95.30;;;;;;5075094;28;20024;-63
2023/09/18 08:03:26;;;;;;;8.18;4.43;;;28.30;94.70;;;;;;5079269;28;20099;-64
2023/09/18 08:05:52;;;;;;;4.70;4.30;;;27.80;95.10;;;;;;5060567;28;20039;-63
2023/09/18 08:08:23;;;;;;;7.22;5.47;;;27.70;95.30;;;;;;5077172;28;20104;-63
2023/09/18 08:10:50;;;;;;;9.32;4.80;;;27.60;95.40;;;;;;5057987;28;20084;-64
2023/09/18 08:13:16;;;;;;;5.15;4.30;;;27.70;95.20;;;;;;5073913;28;20033;-64
2023/09/18 08:15:42;;;;;;;7.28;4.53;;;27.90;95.20;;;;;;5074808;28;20104;-64
2023/09/18 08:18:07;;;;;;;7.30;4.38;;;28.10;94.90;;;;;;5074443;28;20056;-64
2023/09/18 08:20:33;;;;;;;5.38;4.43;;;28.30;94.20;;;;;;5074226;28;20492;-64
2023/09/18 08:23:03;;;;;;;5.45;4.32;;;28.30;94.50;;;;;;5074554;28;20104;-64
2023/09/18 08:25:28;;;;;;;5.57;3.60;;;28.20;94.10;;;;;;5074208;28;20080;-64
2023/09/18 08:27:54;;;;;;;4.57;3.95;;;28.30;94.20;;;;;;5056292;28;20056;-64
2023/09/18 08:30:20;;;;;;;5.35;3.90;;;28.10;94.00;;;;;;5074142;28;20396;-63
2023/09/18 08:32:47;;;;;;;4.93;3.97;;;28.20;94.30;;;;;;5055806;28;20111;-64
2023/09/18 08:35:13;;;;;;;4.82;4.03;;;28.40;93.90;;;;;;5078844;28;20123;-64
2023/09/18 08:37:41;;;;;;;5.30;3.58;;;28.60;93.60;;;;;;5092801;28;20036;-64
2023/09/18 08:40:09;;;;;;;7.22;3.90;;;28.90;93.20;;;;;;5094019;28;20498;-62
2023/09/18 08:42:39;;;;;;;5.93;3.63;;;29.40;92.10;;;;;;5093506;28;20032;-64
2023/09/18 08:45:09;;;;;;;3.83;3.53;;;29.80;91.30;;;;;;5092850;28;20028;-62
2023/09/18 08:47:36;;;;;;;4.25;3.10;;;30.00;90.60;;;;;;5094655;28;20024;-62
2023/09/18 08:50:02;;;;;;;5.53;3.13;;;30.40;89.50;;;;;;5092723;28;20094;-62
2023/09/18 08:52:28;;;;;;;5.45;3.25;;;30.60;86.40;;;;;;5094094;28;20030;-61
2023/09/18 08:54:56;;;;;;;4.93;3.10;;;30.40;87.10;;;;;;5094106;28;20461;-63
2023/09/18 08:57:22;;;;;;;5.85;3.03;;;30.50;85.10;;;;;;5094029;28;20074;-62
2023/09/18 08:59:50;;;;;;;3.60;2.75;;;30.50;83.70;;;;;;5094097;28;20085;-65
2023/09/18 09:02:16;;;;;;;5.90;3.33;;;30.60;83.70;;;;;;5094167;28;20016;-62
2023/09/18 09:04:41;;;;;;;4.57;2.67;;;30.30;83.30;;;;;;5093722;28;20176;-62
2023/09/18 09:07:08;;;;;;;6.30;2.95;;;30.60;82.80;;;;;;5093898;28;20066;-62
2023/09/18 09:09:35;;;;;;;4.65;3.05;;;30.60;81.30;;;;;;5092475;28;20030;-63
2023/09/18 09:12:00;;;;;;;4.38;2.88;;;31.00;80.00;;;;;;5093788;28;20464;-65
2023/09/18 09:14:29;;;;;;;10.27;2.97;;;30.90;80.30;;;;;;5094012;28;20077;-64
2023/09/18 09:16:56;;;;;;;2.60;2.42;;;32.10;78.90;;;;;;5093422;28;20075;-62
2023/09/18 09:19:35;;;;;;;6.85;2.95;;;32.40;75.30;;;;;;5093926;28;20467;-62
2023/09/18 09:22:01;;;;;;;5.10;2.72;;;32.10;75.10;;;;;;5092847;28;20024;-63
2023/09/18 09:24:37;;;;;;;4.32;2.90;;;31.70;74.50;;;;;;5094270;28;20027;-65
2023/09/18 09:27:03;;;;;;;3.28;2.83;;;31.10;75.10;;;;;;5096749;28;20035;-62
2023/09/18 09:29:29;;;;;;;4.55;2.50;;;30.90;75.90;;;;;;5097770;28;20020;-62
2023/09/18 09:31:58;;;;;;;4.72;2.50;;;31.20;75.00;;;;;;5097446;28;20035;-64
2023/09/18 09:34:30;;;;;;;3.97;3.03;;;30.90;74.60;;;;;;5090816;28;20492;-64
2023/09/18 09:36:57;;;;;;;3.75;2.53;;;31.10;74.40;;;;;;5059629;28;20058;-62
2023/09/18 09:39:25;;;;;;;3.78;3.03;;;31.00;75.40;;;;;;5077226;28;20035;-62
2023/09/18 09:41:53;;;;;;;6.20;2.90;;;31.00;74.20;;;;;;5059691;28;20031;-62
2023/09/18 09:44:20;;;;;;;6.40;3.05;;;30.60;74.50;;;;;;5058880;28;20028;-63
2023/09/18 09:46:51;;;;;;;9.30;2.85;;;29.80;76.30;;;;;;5059179;28;20546;-63
2023/09/18 09:49:19;;;;;;;4.63;2.80;;;29.50;77.20;;;;;;5059131;28;20376;-61
2023/09/18 09:51:45;;;;;;;4.55;2.95;;;29.40;77.70;;;;;;5077237;28;20423;-62
2023/09/18 09:54:12;;;;;;;4.72;2.90;;;29.00;78.70;;;;;;5077774;28;20032;-61
2023/09/18 09:56:45;;;;;;;5.70;3.17;;;28.50;80.00;;;;;;5077464;28;20031;-61
2023/09/18 09:59:13;;;;;;;4.95;3.20;;;28.10;80.90;;;;;;5059903;28;20123;-64
2023/09/18 10:01:40;;;;;;;8.98;3.40;;;28.30;86.10;;;;;;5058921;28;20506;-66
2023/09/18 10:04:10;;;;;;;7.40;2.90;;;29.90;78.90;;;;;;5058913;28;20166;-64
2023/09/18 10:06:36;;;;;;;4.25;2.63;;;31.80;74.70;;;;;;5058703;28;20047;-64
2023/09/18 10:09:07;;;;;;;2.88;2.60;;;33.10;71.40;;;;;;5076629;28;20051;-65
2023/09/18 10:11:36;;;;;;;6.72;2.55;;;33.80;69.30;;;;;;5076803;28;20017;-66
2023/09/18 10:14:11;;;;;;;10.10;2.78;;;33.70;67.50;;;;;;5059019;28;20029;-67
2023/09/18 10:16:41;;;;;;;5.93;2.40;;;34.10;66.80;;;;;;5077035;28;20037;-65
2023/09/18 10:19:28;;;;;;;5.88;2.50;;;34.20;64.70;;;;;;5077232;28;20048;-65
2023/09/18 10:22:37;;;;;;;4.22;2.25;;;33.80;65.10;;;;;;5080310;28;20033;-65
2023/09/18 10:25:19;;;;;;;5.25;2.50;;;33.80;64.10;;;;;;5068459;28;20020;-67
2023/09/18 10:27:56;;;;;;;4.22;2.33;;;33.70;64.50;;;;;;5084390;28;20078;-66
2023/09/18 10:30:22;;;;;;;4.05;2.35;;;33.70;63.60;;;;;;5083293;28;20025;-65
2023/09/18 10:32:50;;;;;;;5.72;2.42;;;33.20;63.00;;;;;;5083633;28;20058;-65
2023/09/18 10:35:16;;;;;;;7.68;2.50;;;32.80;63.40;;;;;;5086330;28;20048;-65
2023/09/18 10:37:45;;;;;;;5.30;2.53;;;33.20;64.60;;;;;;5097872;28;20028;-65
2023/09/18 10:40:12;;;;;;;4.55;2.30;;;34.00;61.40;;;;;;5096897;28;20031;-65
2023/09/18 10:42:40;;;;;;;9.07;2.47;;;34.70;61.90;;;;;;5096690;28;20101;-64
2023/09/18 10:45:10;;;;;;;3.63;2.15;;;34.60;58.80;;;;;;5096157;28;20430;-64
2023/09/18 10:47:41;;;;;;;5.15;2.42;;;34.00;60.40;;;;;;5096202;28;20032;-64
2023/09/18 10:50:09;;;;;;;3.05;2.17;;;34.10;60.20;;;;;;5095114;28;20569;-64
2023/09/18 10:52:36;;;;;;;5.88;2.50;;;33.60;59.00;;;;;;5096034;28;20024;-64
2023/09/18 10:55:07;;;;;;;4.65;2.55;;;33.00;60.60;;;;;;5095843;28;20036;-64
2023/09/18 10:57:38;;;;;;;7.55;2.40;;;32.70;61.60;;;;;;5096776;28;20028;-64
2023/09/18 11:00:13;;;;;;;2.92;2.40;;;32.80;60.80;;;;;;5095801;28;20446;-64
2023/09/18 11:02:40;;;;;;;3.28;2.78;;;33.00;60.90;;;;;;5096206;28;20021;-64
2023/09/18 11:05:06;;;;;;;4.80;2.22;;;33.40;60.40;;;;;;5095941;28;20029;-64
2023/09/18 11:07:32;;;;;;;5.10;2.35;;;33.00;60.40;;;;;;5095588;28;20483;-64
2023/09/18 11:09:57;;;;;;;5.38;2.20;;;32.50;61.10;;;;;;5095789;28;20448;-64
2023/09/18 11:12:43;;;;;;;2.85;2.00;;;33.20;60.40;;;;;;5095711;28;20030;-64
2023/09/18 11:15:24;;;;;;;4.93;2.55;;;33.90;58.70;;;;;;5094407;28;20028;-65
2023/09/18 11:17:59;;;;;;;4.00;2.30;;;34.10;58.20;;;;;;5094234;28;20032;-65
2023/09/18 11:20:27;;;;;;;3.65;2.08;;;34.30;57.40;;;;;;5095685;28;20115;-66
2023/09/18 11:22:57;;;;;;;3.28;2.33;;;34.50;57.60;;;;;;5095852;28;20020;-65
2023/09/18 11:25:42;;;;;;;5.93;2.22;;;34.60;56.30;;;;;;5094059;28;20028;-65
2023/09/18 11:28:28;;;;;;;5.68;2.55;;;33.60;58.10;;;;;;5093791;28;20028;-64
2023/09/18 11:31:01;;;;;;;7.10;2.42;;;33.60;58.10;;;;;;5095101;28;20043;-65
2023/09/18 11:33:43;;;;;;;6.78;2.95;;;33.50;58.80;;;;;;5095447;28;20016;-65
2023/09/18 11:36:14;;;;;;;6.50;2.40;;;33.50;59.10;;;;;;5095821;28;20040;-64
2023/09/18 11:39:05;;;;;;;6.57;2.67;;;33.40;59.60;;;;;;5093885;28;20023;-64
2023/09/18 11:41:36;;;;;;;5.25;2.60;;;33.40;59.70;;;;;;5095391;28;20115;-64
2023/09/18 11:44:13;;;;;;;7.72;3.35;;;32.80;60.00;;;;;;5095690;28;20028;-64
2023/09/18 11:46:40;;;;;;;5.47;2.35;;;32.40;61.30;;;;;;5095577;28;20420;-64
2023/09/18 11:49:10;;;;;;;8.80;2.60;;;32.10;62.70;;;;;;5094571;28;20103;-64
2023/09/18 11:51:37;;;;;;;4.40;3.03;;;32.30;62.80;;;;;;5095304;28;20032;-64
2023/09/18 11:54:05;;;;;;;2.95;2.58;;;32.90;61.50;;;;;;5094303;28;20367;-64
2023/09/18 11:56:32;;;;;;;3.83;2.50;;;33.30;60.90;;;;;;5093631;28;20467;-66
2023/09/18 11:58:59;;;;;;;3.92;2.60;;;33.20;60.50;;;;;;5093474;28;20032;-64
2023/09/18 12:01:26;;;;;;;5.40;2.72;;;32.80;61.50;;;;;;5094738;28;20020;-64
2023/09/18 12:04:00;;;;;;;6.55;2.50;;;33.30;60.90;;;;;;5093622;28;20077;-66
2023/09/18 12:06:26;;;;;;;7.40;2.75;;;33.90;60.00;;;;;;5094876;28;20028;-66
2023/09/18 12:08:53;;;;;;;2.88;2.55;;;34.10;58.60;;;;;;5093328;28;20042;-65
2023/09/18 12:11:20;;;;;;;6.20;2.47;;;34.50;58.70;;;;;;5094380;28;20054;-65
2023/09/18 12:13:50;;;;;;;7.07;2.85;;;34.00;58.40;;;;;;5093374;28;20110;-65
2023/09/18 12:16:16;;;;;;;4.78;2.92;;;34.00;58.20;;;;;;5094600;28;20568;-65
2023/09/18 12:18:49;;;;;;;4.25;2.63;;;33.30;59.40;;;;;;5094754;28;20028;-65
2023/09/18 12:21:16;;;;;;;4.82;2.80;;;32.70;60.50;;;;;;5093179;28;20443;-64
2023/09/18 12:23:44;;;;;;;6.78;2.75;;;32.90;59.90;;;;;;5093059;28;20491;-65
2023/09/18 12:26:14;;;;;;;3.55;2.70;;;33.10;59.10;;;;;;5094525;28;20043;-64
2023/09/18 12:28:43;;;;;;;7.90;2.67;;;33.10;58.80;;;;;;5094920;28;20040;-65
2023/09/18 12:31:13;;;;;;;3.20;2.83;;;33.50;59.40;;;;;;5094387;28;20028;-64
2023/09/18 12:33:40;;;;;;;4.45;2.47;;;33.90;59.00;;;;;;5092124;28;20082;-65
2023/09/18 12:36:08;;;;;;;3.67;2.17;;;34.20;57.70;;;;;;5073851;28;20419;-66
2023/09/18 12:38:34;;;;;;;3.03;2.73;;;34.20;57.50;;;;;;5073674;28;20358;-65